Time;durP1;ratioP1;P1;durP2;ratioP2;P2;SDS_P1;SDS_P2;PMS_P1;PMS_P2;Temp;Humidity;BMP_temperature;BMP_pressure;BME280_temperature;BME280_humidity;BME280_pressure;Samples;Min_cycle;Max_cycle;Signal;HPM_P1;HPM_P2
2022/05/09 00:00:57;;;;;;;11.68;6.05;;;;;;;-143.53;100.00;58366.03;2039776;28;20199;-73
2022/05/09 00:01:59;;;;;;;10.20;6.00;;;;;;;-143.53;100.00;58366.03;2055649;28;20199;-72
2022/05/09 00:03:00;;;;;;;7.57;5.68;;;;;;;-143.53;100.00;58366.03;2053246;28;20229;-72
2022/05/09 00:04:02;;;;;;;14.00;6.30;;;;;;;-143.53;100.00;58366.03;2048142;28;20971;-72
2022/05/09 00:05:05;;;;;;;7.82;4.80;;;;;;;-143.53;100.00;58366.03;2047633;29;20202;-73
2022/05/09 00:06:07;;;;;;;8.45;5.70;;;;;;;-143.53;100.00;58366.03;2040321;28;20233;-73
2022/05/09 00:07:08;;;;;;;8.52;5.60;;;;;;;-143.53;100.00;58366.03;2055732;28;20199;-72
2022/05/09 00:08:10;;;;;;;10.82;4.82;;;;;;;-143.53;100.00;58366.03;2051531;28;20583;-73
2022/05/09 00:09:11;;;;;;;8.55;6.22;;;;;;;-143.53;100.00;58366.03;2047370;28;20952;-72
2022/05/09 00:10:16;;;;;;;8.85;5.45;;;;;;;-143.53;100.00;58366.03;2047720;29;20581;-72
2022/05/09 00:11:18;;;;;;;9.85;6.40;;;;;;;-143.53;100.00;58366.03;2042115;28;20226;-72
2022/05/09 00:12:20;;;;;;;9.13;5.30;;;;;;;-143.53;100.00;58366.03;2055686;28;20199;-72
2022/05/09 00:13:21;;;;;;;8.65;5.28;;;;;;;-143.53;100.00;58366.03;2050581;28;20559;-72
2022/05/09 00:14:23;;;;;;;11.98;5.45;;;;;;;-143.53;100.00;58366.03;2047527;28;20199;-72
2022/05/09 00:15:24;;;;;;;7.28;5.15;;;;;;;-143.53;100.00;58366.03;2046832;28;20202;-72
2022/05/09 00:16:33;;;;;;;11.55;5.78;;;;;;;-143.53;100.00;58366.03;2042942;28;20229;-73
2022/05/09 00:17:35;;;;;;;9.65;6.07;;;;;;;-143.53;100.00;58366.03;2055180;28;20202;-72
2022/05/09 00:18:36;;;;;;;8.10;5.80;;;;;;;-143.53;100.00;58366.03;2047499;29;20326;-72
2022/05/09 00:19:38;;;;;;;6.32;5.35;;;;;;;-143.53;100.00;58366.03;2047591;29;20665;-73
2022/05/09 00:20:40;;;;;;;7.80;6.05;;;;;;;-143.53;100.00;58366.03;2048043;28;20210;-72
2022/05/09 00:21:42;;;;;;;7.65;5.43;;;;;;;-143.53;100.00;58366.03;2045040;28;20600;-72
2022/05/09 00:22:53;;;;;;;10.55;6.20;;;;;;;-143.53;100.00;58366.03;2055517;28;20763;-72
2022/05/09 00:23:56;;;;;;;6.60;5.40;;;;;;;-143.53;100.00;58366.03;2047578;29;20210;-73
2022/05/09 00:25:01;;;;;;;9.02;5.43;;;;;;;-143.53;100.00;58366.03;2049028;28;20695;-72
2022/05/09 00:26:02;;;;;;;7.63;5.63;;;;;;;-143.53;100.00;58366.03;2037420;28;20215;-72
2022/05/09 00:27:04;;;;;;;12.98;5.90;;;;;;;-143.53;100.00;58366.03;2047522;29;20207;-73
2022/05/09 00:28:06;;;;;;;9.52;5.97;;;;;;;-143.53;100.00;58366.03;2045685;29;20200;-72
2022/05/09 00:29:10;;;;;;;8.60;5.45;;;;;;;-143.53;100.00;58366.03;2048165;28;20276;-72
2022/05/09 00:30:14;;;;;;;9.75;5.70;;;;;;;-143.53;100.00;58366.03;2047936;28;20305;-72
2022/05/09 00:31:15;;;;;;;9.45;5.35;;;;;;;-143.53;100.00;58366.03;2047031;28;20224;-72
2022/05/09 00:32:17;;;;;;;8.82;6.15;;;;;;;-143.53;100.00;58366.03;2047074;29;20623;-72
2022/05/09 00:33:18;;;;;;;10.82;5.88;;;;;;;-143.53;100.00;58366.03;2047447;29;20663;-73
2022/05/09 00:34:21;;;;;;;12.05;5.85;;;;;;;-143.53;100.00;58366.03;2046964;29;20209;-72
2022/05/09 00:35:23;;;;;;;12.02;5.60;;;;;;;-143.53;100.00;58366.03;2047704;28;20204;-73
2022/05/09 00:36:25;;;;;;;9.05;5.07;;;;;;;-143.53;100.00;58366.03;2042444;28;20777;-72
2022/05/09 00:37:26;;;;;;;9.40;5.20;;;;;;;-143.53;100.00;58366.03;2054004;28;20202;-72
2022/05/09 00:38:28;;;;;;;7.43;5.15;;;;;;;-143.53;100.00;58366.03;2049869;28;20199;-72
2022/05/09 00:39:30;;;;;;;8.05;4.63;;;;;;;-143.53;100.00;58366.03;2045872;28;20201;-73
2022/05/09 00:40:31;;;;;;;12.35;5.97;;;;;;;-143.53;100.00;58366.03;2045946;28;20205;-73
2022/05/09 00:41:37;;;;;;;11.57;5.60;;;;;;;-143.53;100.00;58366.03;2037836;28;20261;-74
2022/05/09 00:42:45;;;;;;;8.77;5.10;;;;;;;-143.53;100.00;58366.03;2048269;28;20287;-72
2022/05/09 00:43:48;;;;;;;9.25;5.57;;;;;;;-143.53;100.00;58366.03;2047083;29;20255;-72
2022/05/09 00:44:49;;;;;;;10.25;4.97;;;;;;;-143.53;100.00;58366.03;2046857;29;20225;-72
2022/05/09 00:45:51;;;;;;;9.38;5.25;;;;;;;-143.53;100.00;58366.03;2036380;28;20233;-71
2022/05/09 00:46:55;;;;;;;6.55;4.75;;;;;;;-143.53;100.00;58366.03;2045911;28;20276;-73
2022/05/09 00:47:57;;;;;;;6.55;4.82;;;;;;;-143.53;100.00;58366.03;2053634;28;20196;-72
2022/05/09 00:49:07;;;;;;;7.68;4.90;;;;;;;-143.53;100.00;58366.03;2047104;29;20604;-72
2022/05/09 00:50:14;;;;;;;7.38;5.30;;;;;;;-143.53;100.00;58366.03;2046041;28;20198;-72
2022/05/09 00:51:23;;;;;;;9.90;5.28;;;;;;;-143.53;100.00;58366.03;2045161;28;20230;-72
2022/05/09 00:52:28;;;;;;;8.95;4.90;;;;;;;-143.53;100.00;58366.03;2054344;28;20215;-72
2022/05/09 00:53:32;;;;;;;6.65;4.80;;;;;;;-143.53;100.00;58366.03;2048150;28;20674;-72
2022/05/09 00:54:41;;;;;;;9.75;5.07;;;;;;;-143.53;100.00;58366.03;2047655;29;20676;-73
2022/05/09 00:55:49;;;;;;;15.07;5.78;;;;;;;-143.53;100.00;58366.03;2050906;28;20216;-72
2022/05/09 00:57:01;;;;;;;8.50;5.07;;;;;;;-143.53;100.00;58366.03;2050637;28;20222;-72
2022/05/09 00:58:19;;;;;;;10.45;5.60;;;;;;;-143.53;100.00;58366.03;2054056;28;20560;-72
2022/05/09 00:59:21;;;;;;;6.25;4.80;;;;;;;-143.53;100.00;58366.03;2051855;28;20198;-72
2022/05/09 01:00:25;;;;;;;10.00;5.50;;;;;;;-143.53;100.00;58366.03;2047689;28;20207;-72
2022/05/09 01:01:27;;;;;;;7.30;4.28;;;;;;;-143.53;100.00;58366.03;2037755;28;20223;-72
2022/05/09 01:02:29;;;;;;;8.18;5.13;;;;;;;-143.53;100.00;58366.03;2047084;28;20196;-72
2022/05/09 01:03:42;;;;;;;8.98;5.15;;;;;;;-143.53;100.00;58366.03;2049640;28;20209;-72
2022/05/09 01:04:52;;;;;;;9.85;5.82;;;;;;;-143.53;100.00;58366.03;2047047;28;20214;-72
2022/05/09 01:05:54;;;;;;;13.38;5.97;;;;;;;-143.53;100.00;58366.03;2037312;28;20653;-71
2022/05/09 01:06:57;;;;;;;9.10;5.40;;;;;;;-143.53;100.00;58366.03;2039227;29;20287;-72
2022/05/09 01:07:59;;;;;;;10.50;5.45;;;;;;;-143.53;100.00;58366.03;2046967;29;20207;-72
2022/05/09 01:09:00;;;;;;;7.47;5.28;;;;;;;-143.53;100.00;58366.03;2047717;28;20814;-72
2022/05/09 01:10:02;;;;;;;8.35;5.72;;;;;;;-143.53;100.00;58366.03;2047557;28;20213;-72
2022/05/09 01:11:10;;;;;;;8.70;6.15;;;;;;;-143.53;100.00;58366.03;2038916;28;20676;-72
2022/05/09 01:12:15;;;;;;;10.02;6.68;;;;;;;-143.53;100.00;58366.03;2051328;28;20223;-72
2022/05/09 01:13:20;;;;;;;8.68;6.57;;;;;;;-143.53;100.00;58366.03;2046920;29;20199;-72
2022/05/09 01:14:28;;;;;;;12.10;6.75;;;;;;;-143.53;100.00;58366.03;2046475;29;20674;-72
2022/05/09 01:15:31;;;;;;;15.60;7.03;;;;;;;-143.53;100.00;58366.03;2047340;29;20307;-72
2022/05/09 01:16:33;;;;;;;9.50;7.00;;;;;;;-143.53;100.00;58366.03;2044004;28;20276;-72
2022/05/09 01:17:39;;;;;;;12.45;6.40;;;;;;;-143.53;100.00;58366.03;2054284;28;20283;-72
2022/05/09 01:18:41;;;;;;;8.68;6.07;;;;;;;-143.53;100.00;58366.03;2048018;28;20200;-72
2022/05/09 01:19:44;;;;;;;10.05;6.82;;;;;;;-143.53;100.00;58366.03;2047629;29;20206;-72
2022/05/09 01:20:46;;;;;;;8.48;5.95;;;;;;;-143.53;100.00;58366.03;2039008;28;20200;-71
2022/05/09 01:21:48;;;;;;;8.80;5.78;;;;;;;-143.53;100.00;58366.03;2046440;28;20209;-72
2022/05/09 01:22:50;;;;;;;10.68;7.00;;;;;;;-143.53;100.00;58366.03;2054301;28;20463;-72
2022/05/09 01:23:51;;;;;;;11.30;6.95;;;;;;;-143.53;100.00;58366.03;2047267;28;20207;-72
2022/05/09 01:24:56;;;;;;;10.20;5.43;;;;;;;-143.53;100.00;58366.03;2047014;28;20207;-72
2022/05/09 01:25:58;;;;;;;13.10;7.07;;;;;;;-143.53;100.00;58366.03;2039317;28;20210;-71
2022/05/09 01:26:59;;;;;;;10.90;6.57;;;;;;;-143.53;100.00;58366.03;2055018;28;20206;-72
2022/05/09 01:28:01;;;;;;;11.13;7.60;;;;;;;-143.53;100.00;58366.03;2053009;28;20210;-72
2022/05/09 01:29:08;;;;;;;8.05;6.35;;;;;;;-143.53;100.00;58366.03;2046996;29;20200;-72
2022/05/09 01:30:19;;;;;;;13.38;6.05;;;;;;;-143.53;100.00;58366.03;2046956;29;20199;-72
2022/05/09 01:31:21;;;;;;;13.40;6.95;;;;;;;-143.53;100.00;58366.03;2045157;28;20215;-72
2022/05/09 01:32:29;;;;;;;9.02;6.57;;;;;;;-143.53;100.00;58366.03;2054975;28;20220;-72
2022/05/09 01:33:36;;;;;;;8.18;6.15;;;;;;;-143.53;100.00;58366.03;2046753;29;20201;-72
2022/05/09 01:34:45;;;;;;;12.23;7.38;;;;;;;-143.53;100.00;58366.03;2037823;29;20660;-72
2022/05/09 01:35:54;;;;;;;11.07;6.57;;;;;;;-143.53;100.00;58366.03;2034420;28;20259;-71
2022/05/09 01:37:00;;;;;;;10.40;6.05;;;;;;;-143.53;100.00;58366.03;2054874;28;20200;-72
2022/05/09 01:38:15;;;;;;;10.88;6.10;;;;;;;-143.53;100.00;58366.03;2052550;28;20199;-72
2022/05/09 01:39:17;;;;;;;8.90;5.88;;;;;;;-143.53;100.00;58366.03;2053033;28;20201;-72
2022/05/09 01:40:19;;;;;;;8.52;6.05;;;;;;;-143.53;100.00;58366.03;2045956;29;20251;-72
2022/05/09 01:41:21;;;;;;;8.75;5.95;;;;;;;-143.53;100.00;58366.03;2037531;28;20232;-71
2022/05/09 01:42:22;;;;;;;8.32;6.18;;;;;;;-143.53;100.00;58366.03;2045168;29;20231;-71
2022/05/09 01:43:39;;;;;;;11.57;7.20;;;;;;;-143.53;100.00;58366.03;2046692;29;20659;-72
2022/05/09 01:44:41;;;;;;;9.35;7.15;;;;;;;-143.53;100.00;58366.03;2047513;29;20206;-72
2022/05/09 01:45:42;;;;;;;11.15;7.07;;;;;;;-143.53;100.00;58366.03;2047097;28;20208;-72
2022/05/09 01:49:30;;;;;;;10.25;6.90;;;;;;;-143.53;100.00;58366.03;2047583;28;20196;-72
2022/05/09 01:50:32;;;;;;;11.60;6.60;;;;;;;-143.53;100.00;58366.03;2046614;29;20196;-72
2022/05/09 01:51:37;;;;;;;11.73;7.47;;;;;;;-143.53;100.00;58366.03;2046219;28;20233;-72
2022/05/09 01:52:39;;;;;;;11.38;6.80;;;;;;;-143.53;100.00;58366.03;2043035;29;20216;-72
2022/05/09 01:53:41;;;;;;;7.97;6.40;;;;;;;-143.53;100.00;58366.03;2046159;29;20834;-72
2022/05/09 01:54:43;;;;;;;11.07;8.05;;;;;;;-143.53;100.00;58366.03;2046800;29;20191;-72
2022/05/09 01:55:45;;;;;;;10.48;6.95;;;;;;;-143.53;100.00;58366.03;2042004;28;20833;-71
2022/05/09 01:56:46;;;;;;;11.00;7.80;;;;;;;-143.53;100.00;58366.03;2046743;29;20569;-72
2022/05/09 01:57:49;;;;;;;11.85;7.40;;;;;;;-143.53;100.00;58366.03;2046939;29;20199;-72
2022/05/09 01:58:51;;;;;;;9.65;6.55;;;;;;;-143.53;100.00;58366.03;2047238;29;20197;-71
2022/05/09 01:59:52;;;;;;;10.45;7.20;;;;;;;-143.53;100.00;58366.03;2047499;28;20203;-71
2022/05/09 02:00:54;;;;;;;15.98;7.80;;;;;;;-143.53;100.00;58366.03;2039091;28;20690;-71
2022/05/09 02:01:59;;;;;;;13.57;7.30;;;;;;;-143.53;100.00;58366.03;2054636;28;20233;-71
2022/05/09 02:03:01;;;;;;;8.65;6.95;;;;;;;-143.53;100.00;58366.03;2046306;29;20685;-71
2022/05/09 02:04:03;;;;;;;10.43;7.53;;;;;;;-143.53;100.00;58366.03;2046676;29;20195;-72
2022/05/09 02:05:05;;;;;;;8.70;6.60;;;;;;;-143.53;100.00;58366.03;2047046;29;20836;-71
2022/05/09 02:06:09;;;;;;;11.85;7.10;;;;;;;-143.53;100.00;58366.03;2036805;28;20228;-71
2022/05/09 02:07:13;;;;;;;10.10;6.30;;;;;;;-143.53;100.00;58366.03;2052174;28;20709;-71
2022/05/09 02:08:15;;;;;;;13.68;6.72;;;;;;;-143.53;100.00;58366.03;2045654;29;20682;-72
2022/05/09 02:09:17;;;;;;;8.93;5.85;;;;;;;-143.53;100.00;58366.03;2046667;29;20255;-72
2022/05/09 02:10:19;;;;;;;8.88;5.97;;;;;;;-143.53;100.00;58366.03;2046464;29;20203;-72
2022/05/09 02:11:21;;;;;;;9.50;6.82;;;;;;;-143.53;100.00;58366.03;2037122;28;20220;-72
2022/05/09 02:12:22;;;;;;;12.55;6.85;;;;;;;-143.53;100.00;58366.03;2053918;28;20206;-72
2022/05/09 02:13:24;;;;;;;13.93;7.82;;;;;;;-143.53;100.00;58366.03;2050134;28;20204;-72
2022/05/09 02:14:25;;;;;;;7.88;6.20;;;;;;;-143.53;100.00;58366.03;2047437;28;20200;-72
2022/05/09 02:15:31;;;;;;;9.57;6.00;;;;;;;-143.53;100.00;58366.03;2046018;28;20204;-72
2022/05/09 02:16:33;;;;;;;8.23;6.00;;;;;;;-143.53;100.00;58366.03;2043344;28;20281;-72
2022/05/09 02:17:36;;;;;;;8.90;6.65;;;;;;;-143.53;100.00;58366.03;2054799;28;20207;-72
2022/05/09 02:18:38;;;;;;;9.98;6.18;;;;;;;-143.53;100.00;58366.03;2044299;29;20240;-72
2022/05/09 02:19:42;;;;;;;7.50;5.78;;;;;;;-143.53;100.00;58366.03;2044204;29;20199;-72
2022/05/09 02:20:43;;;;;;;8.00;6.82;;;;;;;-143.53;100.00;58366.03;2048577;29;20200;-72
2022/05/09 02:21:46;;;;;;;10.68;6.60;;;;;;;-143.53;100.00;58366.03;2044685;29;20236;-72
2022/05/09 02:22:47;;;;;;;9.77;6.95;;;;;;;-143.53;100.00;58366.03;2048959;28;20196;-72
2022/05/09 02:23:49;;;;;;;9.77;6.55;;;;;;;-143.53;100.00;58366.03;2049057;28;20208;-72
2022/05/09 02:24:52;;;;;;;10.93;7.35;;;;;;;-143.53;100.00;58366.03;2048626;29;20196;-72
2022/05/09 02:25:53;;;;;;;8.32;6.47;;;;;;;-143.53;100.00;58366.03;2039551;28;20226;-71
2022/05/09 02:26:56;;;;;;;11.35;8.18;;;;;;;-143.53;100.00;58366.03;2055641;28;20203;-72
2022/05/09 02:27:59;;;;;;;11.25;8.20;;;;;;;-143.53;100.00;58366.03;2054707;28;20204;-72
2022/05/09 02:29:01;;;;;;;12.90;7.85;;;;;;;-143.53;100.00;58366.03;2049031;28;20199;-72
2022/05/09 02:30:05;;;;;;;10.23;7.70;;;;;;;-143.53;100.00;58366.03;2049003;28;20564;-72
2022/05/09 02:31:07;;;;;;;8.43;7.10;;;;;;;-143.53;100.00;58366.03;2041397;28;20229;-72
2022/05/09 02:32:09;;;;;;;13.40;7.75;;;;;;;-143.53;100.00;58366.03;2056343;28;20737;-72
2022/05/09 02:33:11;;;;;;;10.60;7.22;;;;;;;-143.53;100.00;58366.03;2052484;28;20251;-72
2022/05/09 02:34:13;;;;;;;11.00;7.10;;;;;;;-143.53;100.00;58366.03;2048334;29;20196;-72
2022/05/09 02:35:16;;;;;;;14.98;7.70;;;;;;;-143.53;100.00;58366.03;2048988;28;20699;-72
2022/05/09 02:36:17;;;;;;;9.52;6.82;;;;;;;-143.53;100.00;58366.03;2037398;28;20231;-72
2022/05/09 02:37:19;;;;;;;11.45;7.00;;;;;;;-143.53;100.00;58366.03;2048399;28;20200;-72
2022/05/09 02:38:21;;;;;;;8.80;6.80;;;;;;;-143.53;100.00;58366.03;2050557;28;20211;-72
2022/05/09 02:39:22;;;;;;;11.65;7.68;;;;;;;-143.53;100.00;58366.03;2049300;28;20198;-72
2022/05/09 02:40:24;;;;;;;11.32;7.82;;;;;;;-143.53;100.00;58366.03;2039827;29;20216;-72
2022/05/09 02:41:26;;;;;;;8.60;7.00;;;;;;;-143.53;100.00;58366.03;2038851;28;20220;-72
2022/05/09 02:42:27;;;;;;;13.65;7.13;;;;;;;-143.53;100.00;58366.03;2054963;28;20199;-72
2022/05/09 02:43:29;;;;;;;12.30;7.47;;;;;;;-143.53;100.00;58366.03;2050933;28;20203;-72
2022/05/09 02:44:30;;;;;;;9.07;6.05;;;;;;;-143.53;100.00;58366.03;2048830;28;20223;-72
2022/05/09 02:45:33;;;;;;;8.73;6.25;;;;;;;-143.53;100.00;58366.03;2048920;28;20203;-72
2022/05/09 02:46:35;;;;;;;9.82;6.53;;;;;;;-143.53;100.00;58366.03;2044732;28;20851;-72
2022/05/09 02:47:40;;;;;;;12.18;7.88;;;;;;;-143.53;100.00;58366.03;2056025;28;20739;-72
2022/05/09 02:48:42;;;;;;;13.15;7.57;;;;;;;-143.53;100.00;58366.03;2049386;28;20200;-72
2022/05/09 02:49:43;;;;;;;10.30;6.97;;;;;;;-143.53;100.00;58366.03;2048247;29;20211;-72
2022/05/09 02:50:44;;;;;;;11.25;7.93;;;;;;;-143.53;100.00;58366.03;2040568;28;20207;-70
2022/05/09 02:51:48;;;;;;;9.50;7.00;;;;;;;-143.53;100.00;58366.03;2053512;28;20218;-72
2022/05/09 02:52:51;;;;;;;11.07;9.10;;;;;;;-143.53;100.00;58366.03;2055658;28;20195;-72
2022/05/09 02:53:55;;;;;;;9.13;7.82;;;;;;;-143.53;100.00;58366.03;2048679;28;20204;-72
2022/05/09 02:54:57;;;;;;;10.55;7.30;;;;;;;-143.53;100.00;58366.03;2048632;28;20226;-72
2022/05/09 02:55:59;;;;;;;8.93;7.47;;;;;;;-143.53;100.00;58366.03;2040241;28;20200;-72
2022/05/09 02:57:00;;;;;;;9.68;6.95;;;;;;;-143.53;100.00;58366.03;2055672;28;20207;-72
2022/05/09 02:58:02;;;;;;;11.90;7.38;;;;;;;-143.53;100.00;58366.03;2053986;28;20222;-72
2022/05/09 02:59:04;;;;;;;10.63;7.70;;;;;;;-143.53;100.00;58366.03;2048595;28;20299;-72
2022/05/09 03:00:10;;;;;;;9.38;7.47;;;;;;;-143.53;100.00;58366.03;2048040;29;20200;-72
2022/05/09 03:01:13;;;;;;;14.10;8.77;;;;;;;-143.53;100.00;58366.03;2042211;28;20222;-71
2022/05/09 03:02:15;;;;;;;10.38;7.30;;;;;;;-143.53;100.00;58366.03;2055973;28;20203;-72
2022/05/09 03:04:39;;;;;;;11.30;8.20;;;;;;;-143.53;100.00;58366.03;2045102;29;20670;-72
2022/05/09 03:05:42;;;;;;;11.00;8.05;;;;;;;-143.53;100.00;58366.03;2045960;29;20212;-72
2022/05/09 03:06:44;;;;;;;11.00;7.47;;;;;;;-143.53;100.00;58366.03;2037731;28;20239;-71
2022/05/09 03:07:45;;;;;;;12.07;7.72;;;;;;;-143.53;100.00;58366.03;2045199;29;20204;-71
2022/05/09 03:08:47;;;;;;;9.90;7.78;;;;;;;-143.53;100.00;58366.03;2048729;28;20207;-72
2022/05/09 03:09:49;;;;;;;11.85;7.80;;;;;;;-143.53;100.00;58366.03;2048608;28;20207;-72
2022/05/09 03:10:51;;;;;;;12.50;7.70;;;;;;;-143.53;100.00;58366.03;2038382;28;20206;-71
2022/05/09 03:11:53;;;;;;;21.17;8.25;;;;;;;-143.53;100.00;58366.03;2047875;29;20199;-72
2022/05/09 03:13:01;;;;;;;10.40;7.07;;;;;;;-143.53;100.00;58366.03;2047881;29;20262;-72
2022/05/09 03:14:03;;;;;;;7.15;5.50;;;;;;;-143.53;100.00;58366.03;2048441;29;20203;-72
2022/05/09 03:15:05;;;;;;;8.02;5.60;;;;;;;-143.53;100.00;58366.03;2048707;28;20211;-72
2022/05/09 03:16:08;;;;;;;7.38;5.35;;;;;;;-143.53;100.00;58366.03;2041820;28;20231;-71
2022/05/09 03:17:10;;;;;;;9.55;5.70;;;;;;;-143.53;100.00;58366.03;2056002;28;20203;-72
2022/05/09 03:18:13;;;;;;;9.20;5.93;;;;;;;-143.53;100.00;58366.03;2052367;28;20204;-71
2022/05/09 03:19:16;;;;;;;9.68;6.72;;;;;;;-143.53;100.00;58366.03;2045209;29;20778;-71
2022/05/09 03:20:18;;;;;;;8.75;5.78;;;;;;;-143.53;100.00;58366.03;2047525;28;20200;-72
2022/05/09 03:21:20;;;;;;;9.93;7.13;;;;;;;-143.53;100.00;58366.03;2042119;28;20238;-72
2022/05/09 03:22:21;;;;;;;11.25;6.40;;;;;;;-143.53;100.00;58366.03;2045688;29;20227;-72
2022/05/09 03:23:23;;;;;;;13.93;7.60;;;;;;;-143.53;100.00;58366.03;2046444;29;20203;-72
2022/05/09 03:24:25;;;;;;;9.75;6.78;;;;;;;-143.53;100.00;58366.03;2048207;28;20286;-72
2022/05/09 03:25:27;;;;;;;9.65;7.43;;;;;;;-143.53;100.00;58366.03;2046725;28;20783;-72
2022/05/09 03:26:29;;;;;;;12.48;7.85;;;;;;;-143.53;100.00;58366.03;2043809;28;20273;-72
2022/05/09 03:27:30;;;;;;;11.18;7.85;;;;;;;-143.53;100.00;58366.03;2054893;28;20222;-71
2022/05/09 03:28:31;;;;;;;9.85;6.20;;;;;;;-143.53;100.00;58366.03;2050117;28;20210;-71
2022/05/09 03:29:33;;;;;;;10.13;7.28;;;;;;;-143.53;100.00;58366.03;2047344;28;20207;-72
2022/05/09 03:30:36;;;;;;;11.15;7.20;;;;;;;-143.53;100.00;58366.03;2047313;28;20196;-72
2022/05/09 03:31:37;;;;;;;10.52;6.72;;;;;;;-143.53;100.00;58366.03;2044723;28;20219;-71
2022/05/09 03:32:39;;;;;;;14.63;8.60;;;;;;;-143.53;100.00;58366.03;2054205;28;20322;-72
2022/05/09 03:33:41;;;;;;;11.93;8.27;;;;;;;-143.53;100.00;58366.03;2045930;28;20211;-71
2022/05/09 03:34:42;;;;;;;10.65;6.70;;;;;;;-143.53;100.00;58366.03;2046405;28;20200;-71
2022/05/09 03:35:44;;;;;;;13.27;8.82;;;;;;;-143.53;100.00;58366.03;2047707;29;20204;-71
2022/05/09 03:36:46;;;;;;;12.45;8.13;;;;;;;-143.53;100.00;58366.03;2038530;28;20247;-71
2022/05/09 03:37:48;;;;;;;9.65;7.35;;;;;;;-143.53;100.00;58366.03;2047223;29;20207;-72
2022/05/09 03:38:50;;;;;;;11.23;7.72;;;;;;;-143.53;100.00;58366.03;2047527;29;20215;-71
2022/05/09 03:39:51;;;;;;;11.57;7.28;;;;;;;-143.53;100.00;58366.03;2047572;29;20552;-71
2022/05/09 03:40:53;;;;;;;9.77;7.07;;;;;;;-143.53;100.00;58366.03;2039836;28;20196;-71
2022/05/09 03:41:55;;;;;;;10.10;8.15;;;;;;;-143.53;100.00;58366.03;2047111;29;20242;-72
2022/05/09 03:42:59;;;;;;;13.90;8.25;;;;;;;-143.53;100.00;58366.03;2039302;29;20196;-72
2022/05/09 03:44:00;;;;;;;10.10;7.70;;;;;;;-143.53;100.00;58366.03;2046321;29;20203;-72
2022/05/09 03:45:03;;;;;;;12.52;7.85;;;;;;;-143.53;100.00;58366.03;2048055;28;20244;-71
2022/05/09 03:46:05;;;;;;;14.23;8.27;;;;;;;-143.53;100.00;58366.03;2041192;28;20222;-72
2022/05/09 03:47:07;;;;;;;15.82;8.60;;;;;;;-143.53;100.00;58366.03;2055235;28;20195;-72
2022/05/09 03:48:09;;;;;;;11.63;7.55;;;;;;;-143.53;100.00;58366.03;2052638;28;20269;-72
2022/05/09 03:49:11;;;;;;;12.00;7.78;;;;;;;-143.53;100.00;58366.03;2048175;28;20204;-72
2022/05/09 03:50:14;;;;;;;13.90;8.35;;;;;;;-143.53;100.00;58366.03;2047445;29;20208;-72
2022/05/09 03:51:15;;;;;;;11.25;7.53;;;;;;;-143.53;100.00;58366.03;2037508;28;20687;-72
2022/05/09 03:52:17;;;;;;;11.88;8.43;;;;;;;-143.53;100.00;58366.03;2047528;29;20564;-72
2022/05/09 03:53:18;;;;;;;12.65;7.45;;;;;;;-143.53;100.00;58366.03;2046275;29;20729;-72
2022/05/09 03:54:20;;;;;;;12.63;6.60;;;;;;;-143.53;100.00;58366.03;2048108;28;20207;-72
2022/05/09 03:55:21;;;;;;;13.80;7.63;;;;;;;-143.53;100.00;58366.03;2047549;29;20200;-72
2022/05/09 03:56:22;;;;;;;18.80;8.52;;;;;;;-143.53;100.00;58366.03;2043363;28;20645;-71
2022/05/09 03:57:25;;;;;;;9.90;7.28;;;;;;;-143.53;100.00;58366.03;2053773;28;20563;-72
2022/05/09 03:58:27;;;;;;;12.20;7.88;;;;;;;-143.53;100.00;58366.03;2049766;28;20210;-72
2022/05/09 03:59:29;;;;;;;10.50;7.55;;;;;;;-143.53;100.00;58366.03;2045386;29;20237;-72
2022/05/09 04:00:32;;;;;;;10.18;7.90;;;;;;;-143.53;100.00;58366.03;2047604;28;20214;-72
2022/05/09 04:01:34;;;;;;;12.88;7.95;;;;;;;-143.53;100.00;58366.03;2038450;28;20318;-72
2022/05/09 04:02:36;;;;;;;12.27;7.63;;;;;;;-143.53;100.00;58366.03;2046775;29;20304;-72
2022/05/09 04:03:38;;;;;;;11.45;7.38;;;;;;;-143.53;100.00;58366.03;2046906;29;20203;-72
2022/05/09 04:04:40;;;;;;;15.30;7.20;;;;;;;-143.53;100.00;58366.03;2047766;29;20196;-73
2022/05/09 04:05:42;;;;;;;11.70;7.28;;;;;;;-143.53;100.00;58366.03;2047391;29;20730;-73
2022/05/09 04:06:44;;;;;;;12.25;7.78;;;;;;;-143.53;100.00;58366.03;2044837;28;20227;-72
2022/05/09 04:07:50;;;;;;;13.48;8.25;;;;;;;-143.53;100.00;58366.03;2054806;28;20199;-72
2022/05/09 04:08:52;;;;;;;11.50;7.68;;;;;;;-143.53;100.00;58366.03;2047704;29;20211;-72
2022/05/09 04:09:56;;;;;;;12.95;7.75;;;;;;;-143.53;100.00;58366.03;2048065;28;20200;-72
2022/05/09 04:10:58;;;;;;;10.65;7.85;;;;;;;-143.53;100.00;58366.03;2039021;28;20218;-72
2022/05/09 04:11:59;;;;;;;10.50;7.68;;;;;;;-143.53;100.00;58366.03;2054920;28;20210;-72
2022/05/09 04:13:01;;;;;;;10.20;7.78;;;;;;;-143.53;100.00;58366.03;2052545;28;20238;-72
2022/05/09 04:14:03;;;;;;;15.20;8.45;;;;;;;-143.53;100.00;58366.03;2046766;29;20215;-72
2022/05/09 04:17:45;;;;;;;12.32;7.10;;;;;;;-143.53;100.00;58366.03;2054390;28;20715;-72
2022/05/09 04:18:46;;;;;;;12.18;7.90;;;;;;;-143.53;100.00;58366.03;2047192;29;20215;-72
2022/05/09 04:19:48;;;;;;;11.43;7.63;;;;;;;-143.53;100.00;58366.03;2048025;28;20214;-72
2022/05/09 04:20:50;;;;;;;9.68;6.72;;;;;;;-143.53;100.00;58366.03;2039111;28;20212;-72
2022/05/09 04:21:53;;;;;;;11.07;6.82;;;;;;;-143.53;100.00;58366.03;2054557;28;20832;-72
2022/05/09 04:22:56;;;;;;;11.98;7.80;;;;;;;-143.53;100.00;58366.03;2053562;28;20226;-72
2022/05/09 04:23:58;;;;;;;10.57;7.65;;;;;;;-143.53;100.00;58366.03;2046549;29;20199;-72
2022/05/09 04:25:00;;;;;;;8.95;7.20;;;;;;;-143.53;100.00;58366.03;2047147;29;20444;-72
2022/05/09 04:26:02;;;;;;;11.38;7.28;;;;;;;-143.53;100.00;58366.03;2047172;28;20204;-72
2022/05/09 04:27:04;;;;;;;10.15;7.00;;;;;;;-143.53;100.00;58366.03;2047694;28;20214;-72
2022/05/09 04:28:07;;;;;;;9.60;7.32;;;;;;;-143.53;100.00;58366.03;2047928;28;20207;-72
2022/05/09 04:29:08;;;;;;;9.68;6.72;;;;;;;-143.53;100.00;58366.03;2046717;28;20561;-72
2022/05/09 04:30:11;;;;;;;12.73;7.35;;;;;;;-143.53;100.00;58366.03;2047010;28;20729;-72
2022/05/09 04:31:13;;;;;;;16.65;7.30;;;;;;;-143.53;100.00;58366.03;2041443;28;20226;-72
2022/05/09 04:32:15;;;;;;;15.18;6.80;;;;;;;-143.53;100.00;58366.03;2052821;28;20268;-72
2022/05/09 04:33:16;;;;;;;13.00;7.60;;;;;;;-143.53;100.00;58366.03;2046181;29;20910;-72
2022/05/09 04:34:18;;;;;;;9.02;7.00;;;;;;;-143.53;100.00;58366.03;2047168;29;20212;-72
2022/05/09 04:35:21;;;;;;;14.05;7.78;;;;;;;-143.53;100.00;58366.03;2047961;28;20206;-73
2022/05/09 04:36:23;;;;;;;12.68;7.60;;;;;;;-143.53;100.00;58366.03;2042947;28;20588;-72
2022/05/09 04:37:24;;;;;;;10.95;7.32;;;;;;;-143.53;100.00;58366.03;2054250;28;20196;-72
2022/05/09 04:38:26;;;;;;;16.83;7.97;;;;;;;-143.53;100.00;58366.03;2048454;28;20239;-72
2022/05/09 04:39:28;;;;;;;10.13;7.70;;;;;;;-143.53;100.00;58366.03;2047039;29;20219;-72
2022/05/09 04:40:32;;;;;;;12.38;7.03;;;;;;;-143.53;100.00;58366.03;2046129;28;20196;-72
2022/05/09 04:41:36;;;;;;;12.38;7.13;;;;;;;-143.53;100.00;58366.03;2035430;28;20220;-72
2022/05/09 04:42:37;;;;;;;10.85;7.88;;;;;;;-143.53;100.00;58366.03;2044708;29;20208;-72
2022/05/09 04:43:39;;;;;;;10.93;7.75;;;;;;;-143.53;100.00;58366.03;2047137;29;20196;-72
2022/05/09 04:44:41;;;;;;;11.27;6.85;;;;;;;-143.53;100.00;58366.03;2047571;28;20635;-72
2022/05/09 04:45:42;;;;;;;10.05;7.22;;;;;;;-143.53;100.00;58366.03;2047293;28;20558;-72
2022/05/09 04:46:45;;;;;;;11.02;6.22;;;;;;;-143.53;100.00;58366.03;2029887;29;20238;-72
2022/05/09 04:47:50;;;;;;;10.65;6.40;;;;;;;-143.53;100.00;58366.03;2046039;29;20844;-72
2022/05/09 04:48:52;;;;;;;13.52;6.97;;;;;;;-143.53;100.00;58366.03;2047105;29;20731;-72
2022/05/09 04:49:53;;;;;;;11.13;7.00;;;;;;;-143.53;100.00;58366.03;2045645;29;20561;-72
2022/05/09 04:50:56;;;;;;;9.50;6.93;;;;;;;-143.53;100.00;58366.03;2038556;28;20211;-72